OPA Logo
 
ASOS:
At:2022.10.05 0935 UTC
Wind:210° @ 5KT
Viz: 10 mile(s)
Sky: clear
Temp: 51 F (11 C)
DewP: 37 F (3 C)
RH: 57%
Baro: 30.18 in.
ob: KBDN 050935Z AUTO 21005KT 10SM CLR 11/03 A3018 RMK AO2

ASOS: KRDM
At:2022.10.05 0856 UTC
Wind:150° @ 4KT
Viz: 10 mile(s)
Sky: clear
Temp: 51.1 F (10.6 C)
DewP: 37.0 F (2.8 C)
RH: 58%
Baro: 30.14 in.
ob: KRDM 050856Z AUTO 15004KT 10SM CLR 11/03 A3014 RMK AO2 SLP185 T01060028 52008
Apache-SSL Logo

Valid HTML 4.01!

Central Oregon OPA Chapter

XMAS Party December 2001

Click on Images to see image full size

Nancy
Nancy Lecklider and new friend
Ann, Virgina and Dale
Ann, Virginia and Dale
The Gang
The Gang

Photo Credits: Dean Cameron


Web page by: gem@rellim.com